sensor_id;sensor_type;location;lat;lon;timestamp;P1;durP1;ratioP1;P2;durP2;ratioP2
60354;SDS011;46198;51.464;-0.066;2023-02-26T00:01:39;8.23;;;2.77;;
60354;SDS011;46198;51.464;-0.066;2023-02-26T00:04:08;8.63;;;2.73;;
60354;SDS011;46198;51.464;-0.066;2023-02-26T00:06:37;9.97;;;2.53;;
60354;SDS011;46198;51.464;-0.066;2023-02-26T00:09:24;8.93;;;2.07;;
60354;SDS011;46198;51.464;-0.066;2023-02-26T00:11:52;12.93;;;2.63;;
60354;SDS011;46198;51.464;-0.066;2023-02-26T00:14:21;7.17;;;2.43;;
60354;SDS011;46198;51.464;-0.066;2023-02-26T00:16:51;10.00;;;2.00;;
60354;SDS011;46198;51.464;-0.066;2023-02-26T00:19:34;8.00;;;2.13;;
60354;SDS011;46198;51.464;-0.066;2023-02-26T00:22:03;12.97;;;2.20;;
60354;SDS011;46198;51.464;-0.066;2023-02-26T00:24:32;7.33;;;2.37;;
60354;SDS011;46198;51.464;-0.066;2023-02-26T00:27:00;6.97;;;2.20;;
60354;SDS011;46198;51.464;-0.066;2023-02-26T00:29:28;11.70;;;3.13;;
60354;SDS011;46198;51.464;-0.066;2023-02-26T00:31:57;9.80;;;2.53;;
60354;SDS011;46198;51.464;-0.066;2023-02-26T00:34:26;11.03;;;2.87;;
60354;SDS011;46198;51.464;-0.066;2023-02-26T00:37:00;10.37;;;2.43;;
60354;SDS011;46198;51.464;-0.066;2023-02-26T00:39:39;7.07;;;2.50;;
60354;SDS011;46198;51.464;-0.066;2023-02-26T00:42:14;6.33;;;2.13;;
60354;SDS011;46198;51.464;-0.066;2023-02-26T00:44:43;10.40;;;2.00;;
60354;SDS011;46198;51.464;-0.066;2023-02-26T00:47:13;8.33;;;2.13;;
60354;SDS011;46198;51.464;-0.066;2023-02-26T00:49:49;8.60;;;2.20;;
60354;SDS011;46198;51.464;-0.066;2023-02-26T00:52:32;11.30;;;2.80;;
60354;SDS011;46198;51.464;-0.066;2023-02-26T00:55:09;9.17;;;2.13;;
60354;SDS011;46198;51.464;-0.066;2023-02-26T00:57:37;8.03;;;1.90;;
60354;SDS011;46198;51.464;-0.066;2023-02-26T01:00:06;9.47;;;2.67;;
60354;SDS011;46198;51.464;-0.066;2023-02-26T01:02:36;6.27;;;1.83;;
60354;SDS011;46198;51.464;-0.066;2023-02-26T01:05:05;13.10;;;2.63;;
60354;SDS011;46198;51.464;-0.066;2023-02-26T01:07:37;12.05;;;2.67;;
60354;SDS011;46198;51.464;-0.066;2023-02-26T01:10:10;9.57;;;2.33;;
60354;SDS011;46198;51.464;-0.066;2023-02-26T01:12:39;9.73;;;2.42;;
60354;SDS011;46198;51.464;-0.066;2023-02-26T01:15:08;9.40;;;2.60;;
60354;SDS011;46198;51.464;-0.066;2023-02-26T01:17:39;5.53;;;1.90;;
60354;SDS011;46198;51.464;-0.066;2023-02-26T01:20:13;15.87;;;2.73;;
60354;SDS011;46198;51.464;-0.066;2023-02-26T01:22:45;11.40;;;2.20;;
60354;SDS011;46198;51.464;-0.066;2023-02-26T01:25:22;9.70;;;2.23;;
60354;SDS011;46198;51.464;-0.066;2023-02-26T01:27:53;11.47;;;2.73;;
60354;SDS011;46198;51.464;-0.066;2023-02-26T01:30:23;11.57;;;2.30;;
60354;SDS011;46198;51.464;-0.066;2023-02-26T01:32:53;10.70;;;2.43;;
60354;SDS011;46198;51.464;-0.066;2023-02-26T01:35:31;15.17;;;2.37;;
60354;SDS011;46198;51.464;-0.066;2023-02-26T01:38:09;9.37;;;2.10;;
60354;SDS011;46198;51.464;-0.066;2023-02-26T01:43:53;9.07;;;2.30;;
60354;SDS011;46198;51.464;-0.066;2023-02-26T01:46:52;8.00;;;2.00;;
60354;SDS011;46198;51.464;-0.066;2023-02-26T01:49:29;6.93;;;2.33;;
60354;SDS011;46198;51.464;-0.066;2023-02-26T01:51:58;16.03;;;2.63;;
60354;SDS011;46198;51.464;-0.066;2023-02-26T01:54:28;5.33;;;2.83;;
60354;SDS011;46198;51.464;-0.066;2023-02-26T01:56:59;14.43;;;2.57;;
60354;SDS011;46198;51.464;-0.066;2023-02-26T01:59:31;13.73;;;3.37;;
60354;SDS011;46198;51.464;-0.066;2023-02-26T02:02:01;12.07;;;2.73;;
60354;SDS011;46198;51.464;-0.066;2023-02-26T02:04:31;9.80;;;2.88;;
60354;SDS011;46198;51.464;-0.066;2023-02-26T02:07:00;8.17;;;3.27;;
60354;SDS011;46198;51.464;-0.066;2023-02-26T02:09:28;9.87;;;3.13;;
60354;SDS011;46198;51.464;-0.066;2023-02-26T02:12:01;11.17;;;2.50;;
60354;SDS011;46198;51.464;-0.066;2023-02-26T02:14:51;9.83;;;2.60;;
60354;SDS011;46198;51.464;-0.066;2023-02-26T02:17:32;7.83;;;1.93;;
60354;SDS011;46198;51.464;-0.066;2023-02-26T02:20:14;11.87;;;1.80;;
60354;SDS011;46198;51.464;-0.066;2023-02-26T02:22:59;14.00;;;2.00;;
60354;SDS011;46198;51.464;-0.066;2023-02-26T02:25:44;7.43;;;2.03;;
60354;SDS011;46198;51.464;-0.066;2023-02-26T02:28:33;14.63;;;2.90;;
60354;SDS011;46198;51.464;-0.066;2023-02-26T02:31:13;11.63;;;2.60;;
60354;SDS011;46198;51.464;-0.066;2023-02-26T02:33:46;10.33;;;2.70;;
60354;SDS011;46198;51.464;-0.066;2023-02-26T02:36:22;12.60;;;2.30;;
60354;SDS011;46198;51.464;-0.066;2023-02-26T02:38:57;11.37;;;3.20;;
60354;SDS011;46198;51.464;-0.066;2023-02-26T02:41:29;10.00;;;2.37;;
60354;SDS011;46198;51.464;-0.066;2023-02-26T02:44:02;11.87;;;2.30;;
60354;SDS011;46198;51.464;-0.066;2023-02-26T02:46:37;9.20;;;2.10;;
60354;SDS011;46198;51.464;-0.066;2023-02-26T02:49:08;6.40;;;2.30;;
60354;SDS011;46198;51.464;-0.066;2023-02-26T02:51:40;7.03;;;2.10;;
60354;SDS011;46198;51.464;-0.066;2023-02-26T02:54:14;7.10;;;1.97;;
60354;SDS011;46198;51.464;-0.066;2023-02-26T02:56:46;7.27;;;2.67;;
60354;SDS011;46198;51.464;-0.066;2023-02-26T02:59:19;15.30;;;2.67;;
60354;SDS011;46198;51.464;-0.066;2023-02-26T03:01:52;8.23;;;2.47;;
60354;SDS011;46198;51.464;-0.066;2023-02-26T03:04:31;9.38;;;2.83;;
60354;SDS011;46198;51.464;-0.066;2023-02-26T03:07:01;10.20;;;2.05;;
60354;SDS011;46198;51.464;-0.066;2023-02-26T03:09:29;10.23;;;2.63;;
60354;SDS011;46198;51.464;-0.066;2023-02-26T03:11:57;14.53;;;2.60;;
60354;SDS011;46198;51.464;-0.066;2023-02-26T03:14:26;6.53;;;1.80;;
60354;SDS011;46198;51.464;-0.066;2023-02-26T03:17:08;11.03;;;2.97;;
60354;SDS011;46198;51.464;-0.066;2023-02-26T03:19:48;10.97;;;2.77;;
60354;SDS011;46198;51.464;-0.066;2023-02-26T03:22:34;11.47;;;2.67;;
60354;SDS011;46198;51.464;-0.066;2023-02-26T03:25:20;10.33;;;3.23;;
60354;SDS011;46198;51.464;-0.066;2023-02-26T03:27:57;7.53;;;3.00;;
60354;SDS011;46198;51.464;-0.066;2023-02-26T03:30:34;10.07;;;3.30;;
60354;SDS011;46198;51.464;-0.066;2023-02-26T03:33:09;8.00;;;3.13;;
60354;SDS011;46198;51.464;-0.066;2023-02-26T03:35:44;11.87;;;2.80;;
60354;SDS011;46198;51.464;-0.066;2023-02-26T03:38:19;9.87;;;3.03;;
60354;SDS011;46198;51.464;-0.066;2023-02-26T03:40:55;7.83;;;2.93;;
60354;SDS011;46198;51.464;-0.066;2023-02-26T03:43:29;13.90;;;2.67;;
60354;SDS011;46198;51.464;-0.066;2023-02-26T03:46:06;9.50;;;2.83;;
60354;SDS011;46198;51.464;-0.066;2023-02-26T03:48:38;5.37;;;2.50;;
60354;SDS011;46198;51.464;-0.066;2023-02-26T03:51:07;9.20;;;2.77;;
60354;SDS011;46198;51.464;-0.066;2023-02-26T03:53:52;6.47;;;2.30;;
60354;SDS011;46198;51.464;-0.066;2023-02-26T03:56:28;5.50;;;1.90;;
60354;SDS011;46198;51.464;-0.066;2023-02-26T03:59:13;6.93;;;2.00;;
60354;SDS011;46198;51.464;-0.066;2023-02-26T04:01:43;11.17;;;2.30;;
60354;SDS011;46198;51.464;-0.066;2023-02-26T04:04:20;4.97;;;2.10;;
60354;SDS011;46198;51.464;-0.066;2023-02-26T04:06:51;9.80;;;1.83;;
60354;SDS011;46198;51.464;-0.066;2023-02-26T04:09:20;10.77;;;2.30;;
60354;SDS011;46198;51.464;-0.066;2023-02-26T04:11:50;4.23;;;1.70;;
60354;SDS011;46198;51.464;-0.066;2023-02-26T04:14:20;14.68;;;2.78;;
60354;SDS011;46198;51.464;-0.066;2023-02-26T04:16:48;6.87;;;2.10;;
60354;SDS011;46198;51.464;-0.066;2023-02-26T04:19:16;11.10;;;2.47;;
60354;SDS011;46198;51.464;-0.066;2023-02-26T04:21:46;9.73;;;2.47;;
60354;SDS011;46198;51.464;-0.066;2023-02-26T04:24:15;8.30;;;1.73;;
60354;SDS011;46198;51.464;-0.066;2023-02-26T04:26:43;6.83;;;1.73;;
60354;SDS011;46198;51.464;-0.066;2023-02-26T04:29:12;9.63;;;1.80;;
60354;SDS011;46198;51.464;-0.066;2023-02-26T04:31:40;6.90;;;1.93;;
60354;SDS011;46198;51.464;-0.066;2023-02-26T04:34:09;8.37;;;1.60;;
60354;SDS011;46198;51.464;-0.066;2023-02-26T04:36:38;13.50;;;2.50;;
60354;SDS011;46198;51.464;-0.066;2023-02-26T04:39:07;12.43;;;1.90;;
60354;SDS011;46198;51.464;-0.066;2023-02-26T04:41:36;8.33;;;1.83;;
60354;SDS011;46198;51.464;-0.066;2023-02-26T04:44:04;9.53;;;2.47;;
60354;SDS011;46198;51.464;-0.066;2023-02-26T04:46:35;10.70;;;2.15;;
60354;SDS011;46198;51.464;-0.066;2023-02-26T04:49:03;4.93;;;2.03;;
60354;SDS011;46198;51.464;-0.066;2023-02-26T04:51:31;5.37;;;2.07;;
60354;SDS011;46198;51.464;-0.066;2023-02-26T04:53:59;6.50;;;2.07;;
60354;SDS011;46198;51.464;-0.066;2023-02-26T04:56:28;5.00;;;1.80;;
60354;SDS011;46198;51.464;-0.066;2023-02-26T04:58:57;10.23;;;2.73;;
60354;SDS011;46198;51.464;-0.066;2023-02-26T05:01:28;8.90;;;2.30;;
60354;SDS011;46198;51.464;-0.066;2023-02-26T05:03:57;8.70;;;2.30;;
60354;SDS011;46198;51.464;-0.066;2023-02-26T05:06:26;8.63;;;2.20;;
60354;SDS011;46198;51.464;-0.066;2023-02-26T05:08:54;9.40;;;2.23;;
60354;SDS011;46198;51.464;-0.066;2023-02-26T05:11:22;8.47;;;2.13;;
60354;SDS011;46198;51.464;-0.066;2023-02-26T05:13:52;7.97;;;2.27;;
60354;SDS011;46198;51.464;-0.066;2023-02-26T05:16:20;10.00;;;2.00;;
60354;SDS011;46198;51.464;-0.066;2023-02-26T05:18:48;11.77;;;2.70;;
60354;SDS011;46198;51.464;-0.066;2023-02-26T05:21:17;6.00;;;1.70;;
60354;SDS011;46198;51.464;-0.066;2023-02-26T05:23:45;6.93;;;3.03;;
60354;SDS011;46198;51.464;-0.066;2023-02-26T05:26:13;8.87;;;2.83;;
60354;SDS011;46198;51.464;-0.066;2023-02-26T05:28:41;11.10;;;2.13;;
60354;SDS011;46198;51.464;-0.066;2023-02-26T05:31:12;7.05;;;1.60;;
60354;SDS011;46198;51.464;-0.066;2023-02-26T05:33:41;15.40;;;2.27;;
60354;SDS011;46198;51.464;-0.066;2023-02-26T05:36:10;9.93;;;1.77;;
60354;SDS011;46198;51.464;-0.066;2023-02-26T05:38:39;10.83;;;1.87;;
60354;SDS011;46198;51.464;-0.066;2023-02-26T05:41:07;5.83;;;1.90;;
60354;SDS011;46198;51.464;-0.066;2023-02-26T05:43:35;13.40;;;2.07;;
60354;SDS011;46198;51.464;-0.066;2023-02-26T05:46:04;8.73;;;2.50;;
60354;SDS011;46198;51.464;-0.066;2023-02-26T05:48:34;8.20;;;1.63;;
60354;SDS011;46198;51.464;-0.066;2023-02-26T05:51:02;11.40;;;1.80;;
60354;SDS011;46198;51.464;-0.066;2023-02-26T05:53:30;7.53;;;1.80;;
60354;SDS011;46198;51.464;-0.066;2023-02-26T05:55:58;7.83;;;1.67;;
60354;SDS011;46198;51.464;-0.066;2023-02-26T05:58:26;10.43;;;1.63;;
60354;SDS011;46198;51.464;-0.066;2023-02-26T06:00:54;11.33;;;1.80;;
60354;SDS011;46198;51.464;-0.066;2023-02-26T06:03:22;14.27;;;2.30;;
60354;SDS011;46198;51.464;-0.066;2023-02-26T06:05:51;12.13;;;1.53;;
60354;SDS011;46198;51.464;-0.066;2023-02-26T06:08:20;4.20;;;1.45;;
60354;SDS011;46198;51.464;-0.066;2023-02-26T06:10:48;10.23;;;1.63;;
60354;SDS011;46198;51.464;-0.066;2023-02-26T06:13:17;6.10;;;1.60;;
60354;SDS011;46198;51.464;-0.066;2023-02-26T06:15:46;11.53;;;2.00;;
60354;SDS011;46198;51.464;-0.066;2023-02-26T06:18:16;11.23;;;2.38;;
60354;SDS011;46198;51.464;-0.066;2023-02-26T06:20:44;2.90;;;1.30;;
60354;SDS011;46198;51.464;-0.066;2023-02-26T06:23:13;10.20;;;1.90;;
60354;SDS011;46198;51.464;-0.066;2023-02-26T06:25:41;6.77;;;1.77;;
60354;SDS011;46198;51.464;-0.066;2023-02-26T06:28:09;12.00;;;2.47;;
60354;SDS011;46198;51.464;-0.066;2023-02-26T06:30:37;6.80;;;1.87;;
60354;SDS011;46198;51.464;-0.066;2023-02-26T06:33:05;5.67;;;1.50;;
60354;SDS011;46198;51.464;-0.066;2023-02-26T06:35:33;6.47;;;1.50;;
60354;SDS011;46198;51.464;-0.066;2023-02-26T06:38:01;4.47;;;1.70;;
60354;SDS011;46198;51.464;-0.066;2023-02-26T06:40:31;10.70;;;1.70;;
60354;SDS011;46198;51.464;-0.066;2023-02-26T06:42:59;11.80;;;1.70;;
60354;SDS011;46198;51.464;-0.066;2023-02-26T06:45:27;11.00;;;2.03;;
60354;SDS011;46198;51.464;-0.066;2023-02-26T06:47:55;8.67;;;2.53;;
60354;SDS011;46198;51.464;-0.066;2023-02-26T06:50:23;6.70;;;1.70;;
60354;SDS011;46198;51.464;-0.066;2023-02-26T06:52:51;9.53;;;1.90;;
60354;SDS011;46198;51.464;-0.066;2023-02-26T06:55:19;5.10;;;1.90;;
60354;SDS011;46198;51.464;-0.066;2023-02-26T06:57:53;7.93;;;1.90;;
60354;SDS011;46198;51.464;-0.066;2023-02-26T07:00:22;12.10;;;1.70;;
60354;SDS011;46198;51.464;-0.066;2023-02-26T07:02:51;7.83;;;1.97;;
60354;SDS011;46198;51.464;-0.066;2023-02-26T07:05:19;11.17;;;1.80;;
60354;SDS011;46198;51.464;-0.066;2023-02-26T07:07:47;9.70;;;2.27;;
60354;SDS011;46198;51.464;-0.066;2023-02-26T07:10:15;8.43;;;2.40;;
60354;SDS011;46198;51.464;-0.066;2023-02-26T07:12:43;9.20;;;1.60;;
60354;SDS011;46198;51.464;-0.066;2023-02-26T07:15:13;3.57;;;1.23;;
60354;SDS011;46198;51.464;-0.066;2023-02-26T07:17:41;11.13;;;2.23;;
60354;SDS011;46198;51.464;-0.066;2023-02-26T07:20:09;14.20;;;2.20;;
60354;SDS011;46198;51.464;-0.066;2023-02-26T07:22:39;7.30;;;1.87;;
60354;SDS011;46198;51.464;-0.066;2023-02-26T07:25:07;9.60;;;1.27;;
60354;SDS011;46198;51.464;-0.066;2023-02-26T07:27:36;8.03;;;1.30;;
60354;SDS011;46198;51.464;-0.066;2023-02-26T07:30:04;4.97;;;1.10;;
60354;SDS011;46198;51.464;-0.066;2023-02-26T07:32:35;4.67;;;1.17;;
60354;SDS011;46198;51.464;-0.066;2023-02-26T07:35:03;4.47;;;1.40;;
60354;SDS011;46198;51.464;-0.066;2023-02-26T07:37:32;5.70;;;1.40;;
60354;SDS011;46198;51.464;-0.066;2023-02-26T07:40:00;7.73;;;1.30;;
60354;SDS011;46198;51.464;-0.066;2023-02-26T07:42:28;9.03;;;1.40;;
60354;SDS011;46198;51.464;-0.066;2023-02-26T07:44:57;7.83;;;1.23;;
60354;SDS011;46198;51.464;-0.066;2023-02-26T07:47:25;5.37;;;1.73;;
60354;SDS011;46198;51.464;-0.066;2023-02-26T07:49:56;5.60;;;1.60;;
60354;SDS011;46198;51.464;-0.066;2023-02-26T07:52:24;8.97;;;1.47;;
60354;SDS011;46198;51.464;-0.066;2023-02-26T07:54:52;9.07;;;1.90;;
60354;SDS011;46198;51.464;-0.066;2023-02-26T07:57:20;6.57;;;1.97;;
60354;SDS011;46198;51.464;-0.066;2023-02-26T07:59:48;4.47;;;1.47;;
60354;SDS011;46198;51.464;-0.066;2023-02-26T08:02:16;5.30;;;1.40;;
60354;SDS011;46198;51.464;-0.066;2023-02-26T08:04:44;4.63;;;1.73;;
60354;SDS011;46198;51.464;-0.066;2023-02-26T08:07:14;7.03;;;1.33;;
60354;SDS011;46198;51.464;-0.066;2023-02-26T08:09:42;10.53;;;1.87;;
60354;SDS011;46198;51.464;-0.066;2023-02-26T08:12:10;8.50;;;1.30;;
60354;SDS011;46198;51.464;-0.066;2023-02-26T08:14:38;6.30;;;1.53;;
60354;SDS011;46198;51.464;-0.066;2023-02-26T08:17:07;5.13;;;1.30;;
60354;SDS011;46198;51.464;-0.066;2023-02-26T08:19:36;7.03;;;1.47;;
60354;SDS011;46198;51.464;-0.066;2023-02-26T08:22:05;9.10;;;1.37;;
60354;SDS011;46198;51.464;-0.066;2023-02-26T08:24:34;5.67;;;1.37;;
60354;SDS011;46198;51.464;-0.066;2023-02-26T08:27:03;4.83;;;1.27;;
60354;SDS011;46198;51.464;-0.066;2023-02-26T08:29:31;3.17;;;1.60;;
60354;SDS011;46198;51.464;-0.066;2023-02-26T08:31:59;10.67;;;1.80;;
60354;SDS011;46198;51.464;-0.066;2023-02-26T08:34:27;8.67;;;1.00;;
60354;SDS011;46198;51.464;-0.066;2023-02-26T08:36:55;8.57;;;2.13;;
60354;SDS011;46198;51.464;-0.066;2023-02-26T08:39:23;9.37;;;1.40;;
60354;SDS011;46198;51.464;-0.066;2023-02-26T08:41:52;6.90;;;1.53;;
60354;SDS011;46198;51.464;-0.066;2023-02-26T08:44:20;7.63;;;1.30;;
60354;SDS011;46198;51.464;-0.066;2023-02-26T08:46:48;3.03;;;0.93;;
60354;SDS011;46198;51.464;-0.066;2023-02-26T08:49:16;7.63;;;1.40;;
60354;SDS011;46198;51.464;-0.066;2023-02-26T08:51:44;4.67;;;1.13;;
60354;SDS011;46198;51.464;-0.066;2023-02-26T08:54:12;5.10;;;1.30;;
60354;SDS011;46198;51.464;-0.066;2023-02-26T08:56:41;6.97;;;1.73;;
60354;SDS011;46198;51.464;-0.066;2023-02-26T08:59:10;7.83;;;1.30;;
60354;SDS011;46198;51.464;-0.066;2023-02-26T09:01:39;8.43;;;1.50;;
60354;SDS011;46198;51.464;-0.066;2023-02-26T09:04:07;8.93;;;1.73;;
60354;SDS011;46198;51.464;-0.066;2023-02-26T09:06:35;6.03;;;1.60;;
60354;SDS011;46198;51.464;-0.066;2023-02-26T09:09:03;6.87;;;1.30;;
60354;SDS011;46198;51.464;-0.066;2023-02-26T09:11:31;8.13;;;1.47;;
60354;SDS011;46198;51.464;-0.066;2023-02-26T09:13:59;6.53;;;1.23;;
60354;SDS011;46198;51.464;-0.066;2023-02-26T09:16:30;5.33;;;1.33;;
60354;SDS011;46198;51.464;-0.066;2023-02-26T09:19:01;8.77;;;1.30;;
60354;SDS011;46198;51.464;-0.066;2023-02-26T09:21:29;7.87;;;1.17;;
60354;SDS011;46198;51.464;-0.066;2023-02-26T09:23:58;3.33;;;1.00;;
60354;SDS011;46198;51.464;-0.066;2023-02-26T09:26:26;4.73;;;1.20;;
60354;SDS011;46198;51.464;-0.066;2023-02-26T09:28:54;7.50;;;1.60;;
60354;SDS011;46198;51.464;-0.066;2023-02-26T09:34:17;3.83;;;1.10;;
60354;SDS011;46198;51.464;-0.066;2023-02-26T09:36:45;7.10;;;1.73;;
60354;SDS011;46198;51.464;-0.066;2023-02-26T09:39:14;4.93;;;1.23;;
60354;SDS011;46198;51.464;-0.066;2023-02-26T09:41:42;7.83;;;1.23;;
60354;SDS011;46198;51.464;-0.066;2023-02-26T09:44:16;4.67;;;1.17;;
60354;SDS011;46198;51.464;-0.066;2023-02-26T09:46:50;7.43;;;1.37;;
60354;SDS011;46198;51.464;-0.066;2023-02-26T09:49:31;3.93;;;1.60;;
60354;SDS011;46198;51.464;-0.066;2023-02-26T09:52:10;4.43;;;1.27;;
60354;SDS011;46198;51.464;-0.066;2023-02-26T09:54:45;6.50;;;1.57;;
60354;SDS011;46198;51.464;-0.066;2023-02-26T09:59:48;4.67;;;1.20;;
60354;SDS011;46198;51.464;-0.066;2023-02-26T10:02:19;5.13;;;0.97;;
60354;SDS011;46198;51.464;-0.066;2023-02-26T10:04:53;1.90;;;0.80;;
60354;SDS011;46198;51.464;-0.066;2023-02-26T10:07:29;5.73;;;1.10;;
60354;SDS011;46198;51.464;-0.066;2023-02-26T10:10:12;4.63;;;1.10;;
60354;SDS011;46198;51.464;-0.066;2023-02-26T10:12:46;4.07;;;1.05;;
60354;SDS011;46198;51.464;-0.066;2023-02-26T10:15:18;4.57;;;1.10;;
60354;SDS011;46198;51.464;-0.066;2023-02-26T10:17:56;7.57;;;1.40;;
60354;SDS011;46198;51.464;-0.066;2023-02-26T10:20:32;5.87;;;1.63;;
60354;SDS011;46198;51.464;-0.066;2023-02-26T10:23:06;5.20;;;1.10;;
60354;SDS011;46198;51.464;-0.066;2023-02-26T10:25:47;6.15;;;1.30;;
60354;SDS011;46198;51.464;-0.066;2023-02-26T10:31:28;6.73;;;1.20;;
60354;SDS011;46198;51.464;-0.066;2023-02-26T10:34:06;6.17;;;1.30;;
60354;SDS011;46198;51.464;-0.066;2023-02-26T10:36:43;6.60;;;1.43;;
60354;SDS011;46198;51.464;-0.066;2023-02-26T10:39:21;3.23;;;1.03;;
60354;SDS011;46198;51.464;-0.066;2023-02-26T10:41:56;3.17;;;0.90;;
60354;SDS011;46198;51.464;-0.066;2023-02-26T10:44:31;5.03;;;1.03;;
60354;SDS011;46198;51.464;-0.066;2023-02-26T10:47:05;8.17;;;1.20;;
60354;SDS011;46198;51.464;-0.066;2023-02-26T10:49:53;5.37;;;1.03;;
60354;SDS011;46198;51.464;-0.066;2023-02-26T10:52:23;2.93;;;1.00;;
60354;SDS011;46198;51.464;-0.066;2023-02-26T10:58:08;3.17;;;1.43;;
60354;SDS011;46198;51.464;-0.066;2023-02-26T11:00:39;2.63;;;0.60;;
60354;SDS011;46198;51.464;-0.066;2023-02-26T11:03:10;5.13;;;1.10;;
60354;SDS011;46198;51.464;-0.066;2023-02-26T11:05:44;4.10;;;1.10;;
60354;SDS011;46198;51.464;-0.066;2023-02-26T11:08:14;3.03;;;0.73;;
60354;SDS011;46198;51.464;-0.066;2023-02-26T11:13:15;4.83;;;1.03;;
60354;SDS011;46198;51.464;-0.066;2023-02-26T11:15:43;2.67;;;0.80;;
60354;SDS011;46198;51.464;-0.066;2023-02-26T11:18:15;2.13;;;0.77;;
60354;SDS011;46198;51.464;-0.066;2023-02-26T11:20:49;4.57;;;1.23;;
60354;SDS011;46198;51.464;-0.066;2023-02-26T11:23:21;1.77;;;0.60;;
60354;SDS011;46198;51.464;-0.066;2023-02-26T11:25:53;1.30;;;0.70;;
60354;SDS011;46198;51.464;-0.066;2023-02-26T11:28:30;3.07;;;0.90;;
60354;SDS011;46198;51.464;-0.066;2023-02-26T11:30:59;5.07;;;0.80;;
60354;SDS011;46198;51.464;-0.066;2023-02-26T11:33:33;5.23;;;1.10;;
60354;SDS011;46198;51.464;-0.066;2023-02-26T11:36:07;3.40;;;1.10;;
60354;SDS011;46198;51.464;-0.066;2023-02-26T11:38:37;1.73;;;0.80;;
60354;SDS011;46198;51.464;-0.066;2023-02-26T11:41:06;0.90;;;0.80;;
60354;SDS011;46198;51.464;-0.066;2023-02-26T11:43:36;3.90;;;0.90;;
60354;SDS011;46198;51.464;-0.066;2023-02-26T11:46:10;5.83;;;0.90;;
60354;SDS011;46198;51.464;-0.066;2023-02-26T11:48:40;3.87;;;0.83;;
60354;SDS011;46198;51.464;-0.066;2023-02-26T11:51:18;2.27;;;0.80;;
60354;SDS011;46198;51.464;-0.066;2023-02-26T11:53:49;4.03;;;1.10;;
60354;SDS011;46198;51.464;-0.066;2023-02-26T11:56:22;5.20;;;1.23;;
60354;SDS011;46198;51.464;-0.066;2023-02-26T11:58:53;2.60;;;0.83;;
60354;SDS011;46198;51.464;-0.066;2023-02-26T12:01:25;1.60;;;0.70;;
60354;SDS011;46198;51.464;-0.066;2023-02-26T12:03:57;3.17;;;1.00;;
60354;SDS011;46198;51.464;-0.066;2023-02-26T12:06:28;3.80;;;0.80;;
60354;SDS011;46198;51.464;-0.066;2023-02-26T12:08:56;3.42;;;1.20;;
60354;SDS011;46198;51.464;-0.066;2023-02-26T12:11:33;1.73;;;0.70;;
60354;SDS011;46198;51.464;-0.066;2023-02-26T12:17:14;2.53;;;0.90;;
60354;SDS011;46198;51.464;-0.066;2023-02-26T12:19:59;5.10;;;1.00;;
60354;SDS011;46198;51.464;-0.066;2023-02-26T12:22:55;2.67;;;1.30;;
60354;SDS011;46198;51.464;-0.066;2023-02-26T12:25:42;2.43;;;0.90;;
60354;SDS011;46198;51.464;-0.066;2023-02-26T12:28:29;3.65;;;1.00;;
60354;SDS011;46198;51.464;-0.066;2023-02-26T12:31:09;4.87;;;1.40;;
60354;SDS011;46198;51.464;-0.066;2023-02-26T12:33:52;2.73;;;0.80;;
60354;SDS011;46198;51.464;-0.066;2023-02-26T12:36:32;4.60;;;0.83;;
60354;SDS011;46198;51.464;-0.066;2023-02-26T12:39:20;2.33;;;0.70;;
60354;SDS011;46198;51.464;-0.066;2023-02-26T12:42:02;4.17;;;1.03;;
60354;SDS011;46198;51.464;-0.066;2023-02-26T12:44:44;2.35;;;1.00;;
60354;SDS011;46198;51.464;-0.066;2023-02-26T12:47:24;4.50;;;1.20;;
60354;SDS011;46198;51.464;-0.066;2023-02-26T12:53:04;5.37;;;1.77;;
60354;SDS011;46198;51.464;-0.066;2023-02-26T12:56:02;7.47;;;1.60;;
60354;SDS011;46198;51.464;-0.066;2023-02-26T12:58:48;4.77;;;1.10;;
60354;SDS011;46198;51.464;-0.066;2023-02-26T13:01:30;6.37;;;1.83;;
60354;SDS011;46198;51.464;-0.066;2023-02-26T13:04:31;3.17;;;0.97;;
60354;SDS011;46198;51.464;-0.066;2023-02-26T13:07:28;7.33;;;1.77;;
60354;SDS011;46198;51.464;-0.066;2023-02-26T13:10:18;7.17;;;1.30;;
60354;SDS011;46198;51.464;-0.066;2023-02-26T13:12:59;1.37;;;1.10;;
60354;SDS011;46198;51.464;-0.066;2023-02-26T13:15:46;5.73;;;1.20;;
60354;SDS011;46198;51.464;-0.066;2023-02-26T13:18:24;3.77;;;0.97;;
60354;SDS011;46198;51.464;-0.066;2023-02-26T13:20:58;2.03;;;0.90;;
60354;SDS011;46198;51.464;-0.066;2023-02-26T13:23:32;4.67;;;1.40;;
60354;SDS011;46198;51.464;-0.066;2023-02-26T13:26:05;3.63;;;1.13;;
60354;SDS011;46198;51.464;-0.066;2023-02-26T13:28:40;4.47;;;1.30;;
60354;SDS011;46198;51.464;-0.066;2023-02-26T13:31:12;4.73;;;1.67;;
60354;SDS011;46198;51.464;-0.066;2023-02-26T13:33:45;3.17;;;1.20;;
60354;SDS011;46198;51.464;-0.066;2023-02-26T13:36:16;2.28;;;0.80;;
60354;SDS011;46198;51.464;-0.066;2023-02-26T13:38:51;4.40;;;0.98;;
60354;SDS011;46198;51.464;-0.066;2023-02-26T13:41:33;4.73;;;1.53;;
60354;SDS011;46198;51.464;-0.066;2023-02-26T13:44:23;3.93;;;1.23;;
60354;SDS011;46198;51.464;-0.066;2023-02-26T13:47:12;5.97;;;1.00;;
60354;SDS011;46198;51.464;-0.066;2023-02-26T13:49:54;7.63;;;1.30;;
60354;SDS011;46198;51.464;-0.066;2023-02-26T13:52:32;4.70;;;1.35;;
60354;SDS011;46198;51.464;-0.066;2023-02-26T13:55:02;5.38;;;1.05;;
60354;SDS011;46198;51.464;-0.066;2023-02-26T13:57:42;4.97;;;1.87;;
60354;SDS011;46198;51.464;-0.066;2023-02-26T14:00:26;5.63;;;1.30;;
60354;SDS011;46198;51.464;-0.066;2023-02-26T14:02:56;6.37;;;1.17;;
60354;SDS011;46198;51.464;-0.066;2023-02-26T14:08:44;5.43;;;1.10;;
60354;SDS011;46198;51.464;-0.066;2023-02-26T14:11:32;4.80;;;1.00;;
60354;SDS011;46198;51.464;-0.066;2023-02-26T14:14:13;7.30;;;1.57;;
60354;SDS011;46198;51.464;-0.066;2023-02-26T14:16:49;7.23;;;1.60;;
60354;SDS011;46198;51.464;-0.066;2023-02-26T14:19:30;4.40;;;1.43;;
60354;SDS011;46198;51.464;-0.066;2023-02-26T14:22:01;4.80;;;1.87;;
60354;SDS011;46198;51.464;-0.066;2023-02-26T14:24:43;3.20;;;1.15;;
60354;SDS011;46198;51.464;-0.066;2023-02-26T14:30:14;8.27;;;1.90;;
60354;SDS011;46198;51.464;-0.066;2023-02-26T14:32:47;5.93;;;2.13;;
60354;SDS011;46198;51.464;-0.066;2023-02-26T14:35:17;5.00;;;1.60;;
60354;SDS011;46198;51.464;-0.066;2023-02-26T14:37:52;3.10;;;1.40;;
60354;SDS011;46198;51.464;-0.066;2023-02-26T14:40:25;4.40;;;1.80;;
60354;SDS011;46198;51.464;-0.066;2023-02-26T14:42:58;6.87;;;1.37;;
60354;SDS011;46198;51.464;-0.066;2023-02-26T14:45:29;2.90;;;1.37;;
60354;SDS011;46198;51.464;-0.066;2023-02-26T14:48:00;3.03;;;0.98;;
60354;SDS011;46198;51.464;-0.066;2023-02-26T14:50:33;3.63;;;1.53;;
60354;SDS011;46198;51.464;-0.066;2023-02-26T14:56:10;6.93;;;1.60;;
60354;SDS011;46198;51.464;-0.066;2023-02-26T15:01:46;3.90;;;1.57;;
60354;SDS011;46198;51.464;-0.066;2023-02-26T15:04:26;6.70;;;1.00;;
60354;SDS011;46198;51.464;-0.066;2023-02-26T15:07:30;4.83;;;1.30;;
60354;SDS011;46198;51.464;-0.066;2023-02-26T15:10:20;3.03;;;1.20;;
60354;SDS011;46198;51.464;-0.066;2023-02-26T15:13:11;5.27;;;1.47;;
60354;SDS011;46198;51.464;-0.066;2023-02-26T15:15:51;4.43;;;1.40;;
60354;SDS011;46198;51.464;-0.066;2023-02-26T15:18:27;5.30;;;1.30;;
60354;SDS011;46198;51.464;-0.066;2023-02-26T15:21:09;7.80;;;1.20;;
60354;SDS011;46198;51.464;-0.066;2023-02-26T15:23:45;5.93;;;1.10;;
60354;SDS011;46198;51.464;-0.066;2023-02-26T15:26:17;4.67;;;1.20;;
60354;SDS011;46198;51.464;-0.066;2023-02-26T15:28:49;3.93;;;1.50;;
60354;SDS011;46198;51.464;-0.066;2023-02-26T15:31:19;5.03;;;1.00;;
60354;SDS011;46198;51.464;-0.066;2023-02-26T15:33:48;0.97;;;0.90;;
60354;SDS011;46198;51.464;-0.066;2023-02-26T15:36:18;11.47;;;3.80;;
60354;SDS011;46198;51.464;-0.066;2023-02-26T15:38:53;2.07;;;0.80;;
60354;SDS011;46198;51.464;-0.066;2023-02-26T15:41:22;5.37;;;1.17;;